createdAt,value
2018-01-21T00:02:24.216Z,19.40
2018-01-21T00:04:52.470Z,20.53
2018-01-21T00:07:20.716Z,20.67
2018-01-21T00:09:49.010Z,19.00
2018-01-21T00:12:18.309Z,20.20
2018-01-21T00:14:46.517Z,19.57
2018-01-21T00:17:14.892Z,19.47
2018-01-21T00:19:43.132Z,20.33
2018-01-21T00:22:24.839Z,20.30
2018-01-21T00:24:53.848Z,19.80
2018-01-21T00:27:22.103Z,18.97
2018-01-21T00:29:51.150Z,20.53
2018-01-21T00:32:19.439Z,20.47
2018-01-21T00:34:48.701Z,20.97
2018-01-21T00:37:16.974Z,19.83
2018-01-21T00:39:45.300Z,19.43
2018-01-21T00:42:13.607Z,18.60
2018-01-21T00:44:41.855Z,18.20
2018-01-21T00:47:10.099Z,19.77
2018-01-21T00:49:38.578Z,21.90
2018-01-21T00:52:07.029Z,21.80
2018-01-21T00:54:36.028Z,21.00
2018-01-21T00:57:05.272Z,21.80
2018-01-21T00:59:33.522Z,21.63
2018-01-21T01:02:01.765Z,21.17
2018-01-21T01:04:31.104Z,19.60
2018-01-21T01:06:59.349Z,19.83
2018-01-21T01:09:28.369Z,22.80
2018-01-21T01:11:56.765Z,23.33
2018-01-21T01:14:25.016Z,22.50
2018-01-21T01:16:53.473Z,23.50
2018-01-21T01:19:22.616Z,21.90
2018-01-21T01:21:50.860Z,25.57
2018-01-21T01:24:19.105Z,24.80
2018-01-21T01:26:47.869Z,22.10
2018-01-21T01:29:16.080Z,24.23
2018-01-21T01:31:45.127Z,25.37
2018-01-21T01:34:13.511Z,23.07
2018-01-21T01:36:43.937Z,23.10
2018-01-21T01:39:12.178Z,21.47
2018-01-21T01:41:40.587Z,19.20
2018-01-21T01:44:08.829Z,21.70
2018-01-21T01:46:37.066Z,19.87
2018-01-21T01:49:05.529Z,20.87
2018-01-21T01:51:33.772Z,18.90
2018-01-21T01:54:02.027Z,18.57
2018-01-21T01:56:31.273Z,18.37
2018-01-21T01:58:59.504Z,19.90
2018-01-21T02:01:27.761Z,17.90
2018-01-21T02:03:56.195Z,19.80
2018-01-21T02:06:26.156Z,21.90
2018-01-21T02:08:54.584Z,19.60
2018-01-21T02:11:22.849Z,19.70
2018-01-21T02:13:51.473Z,18.67
2018-01-21T02:16:20.029Z,19.67
2018-01-21T02:18:48.293Z,18.83
2018-01-21T02:21:17.269Z,19.77
2018-01-21T02:23:45.661Z,18.33
2018-01-21T02:26:13.919Z,17.63
2018-01-21T02:28:42.928Z,17.87
2018-01-21T02:31:11.334Z,17.50
2018-01-21T02:33:39.572Z,16.57
2018-01-21T02:36:08.956Z,15.90
2018-01-21T02:38:37.163Z,15.47
2018-01-21T02:41:05.406Z,15.23
2018-01-21T02:43:33.753Z,15.53
2018-01-21T02:46:02.021Z,13.90
2018-01-21T02:48:30.362Z,15.27
2018-01-21T02:50:58.977Z,12.97
2018-01-21T02:53:27.504Z,12.23
2018-01-21T02:55:55.708Z,12.90
2018-01-21T02:58:23.954Z,13.17
2018-01-21T03:00:52.409Z,13.47
2018-01-21T03:03:20.645Z,12.20
2018-01-21T03:05:48.909Z,11.47
2018-01-21T03:08:17.329Z,12.93
2018-01-21T03:10:45.564Z,12.00
2018-01-21T03:13:14.108Z,10.63
2018-01-21T03:15:42.343Z,10.60
2018-01-21T03:18:10.612Z,10.53
2018-01-21T03:20:39.116Z,12.03
2018-01-21T03:23:08.253Z,10.60
2018-01-21T03:25:36.556Z,10.20
2018-01-21T03:28:04.808Z,11.30
2018-01-21T03:30:34.154Z,12.13
2018-01-21T03:33:02.393Z,11.80
2018-01-21T03:35:30.672Z,11.10
2018-01-21T03:37:59.098Z,10.27
2018-01-21T03:40:27.587Z,10.60
2018-01-21T03:42:55.902Z,10.60
2018-01-21T03:45:24.531Z,8.70
2018-01-21T03:47:53.583Z,9.33
2018-01-21T03:50:21.817Z,9.53
2018-01-21T03:52:50.197Z,9.17
2018-01-21T03:55:18.475Z,9.80
2018-01-21T03:57:46.796Z,8.93
2018-01-21T04:00:15.222Z,9.87
2018-01-21T04:02:43.460Z,10.93
2018-01-21T04:05:12.462Z,9.93
2018-01-21T04:07:40.864Z,8.67
2018-01-21T04:10:09.325Z,9.90
2018-01-21T04:12:37.580Z,10.67
2018-01-21T04:15:06.721Z,9.53
2018-01-21T04:17:34.969Z,10.37
2018-01-21T04:20:03.232Z,9.80
2018-01-21T04:22:32.584Z,10.10
2018-01-21T04:25:00.812Z,11.83
2018-01-21T04:27:29.835Z,11.63
2018-01-21T04:29:58.209Z,10.93
2018-01-21T04:32:26.451Z,12.73
2018-01-21T04:34:55.601Z,11.07
2018-01-21T04:37:23.829Z,12.70
2018-01-21T04:39:52.838Z,12.37
2018-01-21T04:42:21.236Z,11.43
2018-01-21T04:44:49.500Z,10.17
2018-01-21T04:47:17.790Z,9.80
2018-01-21T04:49:46.531Z,10.53
2018-01-21T04:52:14.911Z,10.00
2018-01-21T04:54:43.454Z,9.73
2018-01-21T04:57:11.685Z,10.50
2018-01-21T04:59:40.694Z,10.67
2018-01-21T05:02:10.008Z,9.80
2018-01-21T05:04:38.330Z,11.87
2018-01-21T05:07:08.167Z,11.47
2018-01-21T05:09:36.585Z,10.50
2018-01-21T05:12:04.946Z,11.20
2018-01-21T05:14:33.185Z,9.80
2018-01-21T05:17:02.307Z,10.57
2018-01-21T05:19:30.536Z,9.90
2018-01-21T05:21:58.780Z,9.47
2018-01-21T05:24:27.260Z,9.77
2018-01-21T05:26:55.549Z,11.43
2018-01-21T05:29:23.805Z,10.40
2018-01-21T05:31:52.549Z,10.17
2018-01-21T05:34:20.757Z,10.87
2018-01-21T05:36:49.227Z,10.30
2018-01-21T05:39:18.557Z,10.23
2018-01-21T05:41:46.805Z,10.90
2018-01-21T05:44:15.807Z,10.33
2018-01-21T05:46:44.226Z,10.57
2018-01-21T05:49:12.462Z,11.20
2018-01-21T05:51:40.724Z,10.00
2018-01-21T05:54:09.248Z,10.80
2018-01-21T05:56:37.493Z,10.50
2018-01-21T05:59:05.856Z,9.87
2018-01-21T06:01:34.260Z,8.77
2018-01-21T06:04:03.229Z,9.63
2018-01-21T06:06:31.696Z,9.40
2018-01-21T06:09:00.697Z,9.47
2018-01-21T06:11:29.846Z,8.73
2018-01-21T06:13:58.070Z,8.93
2018-01-21T06:16:27.217Z,9.53
2018-01-21T06:18:55.465Z,9.73
2018-01-21T06:21:23.713Z,8.90
2018-01-21T06:23:52.164Z,10.27
2018-01-21T06:26:20.415Z,9.10
2018-01-21T06:28:48.645Z,9.57
2018-01-21T06:31:17.885Z,9.37
2018-01-21T06:33:46.125Z,9.00
2018-01-21T06:36:15.118Z,8.73
2018-01-21T06:38:43.538Z,8.53
2018-01-21T06:41:11.764Z,8.27
2018-01-21T06:43:40.039Z,7.80
2018-01-21T06:46:08.365Z,9.50
2018-01-21T06:48:36.840Z,9.30
2018-01-21T06:51:05.078Z,8.13
2018-01-21T06:53:33.307Z,7.00
2018-01-21T06:56:01.665Z,6.90
2018-01-21T06:58:30.167Z,7.23
2018-01-21T07:00:59.676Z,7.60
2018-01-21T07:03:27.928Z,8.00
2018-01-21T07:05:56.425Z,7.60
2018-01-21T07:08:24.672Z,7.77
2018-01-21T07:10:52.905Z,8.00
2018-01-21T07:13:21.424Z,7.23
2018-01-21T07:15:50.423Z,8.40
2018-01-21T07:18:18.782Z,7.63
2018-01-21T07:20:47.304Z,8.97
2018-01-21T07:23:15.554Z,10.47
2018-01-21T07:25:44.553Z,8.83
2018-01-21T07:28:13.866Z,8.30
2018-01-21T07:30:42.112Z,8.87
2018-01-21T07:33:10.706Z,10.23
2018-01-21T07:35:39.845Z,9.13
2018-01-21T07:38:08.083Z,9.90
2018-01-21T07:40:37.236Z,8.70
2018-01-21T07:43:05.481Z,10.10
2018-01-21T07:45:33.904Z,9.10
2018-01-21T07:48:02.130Z,8.93
2018-01-21T07:50:30.566Z,9.60
2018-01-21T07:52:58.957Z,9.20
2018-01-21T07:55:28.289Z,9.37
2018-01-21T07:57:56.542Z,9.30
2018-01-21T08:00:24.960Z,9.40
2018-01-21T08:02:53.381Z,9.60
2018-01-21T08:05:21.589Z,9.77
2018-01-21T08:07:50.092Z,10.20
2018-01-21T08:10:18.341Z,11.60
2018-01-21T08:12:46.616Z,11.30
2018-01-21T08:15:15.650Z,9.73
2018-01-21T08:17:43.888Z,10.70
2018-01-21T08:20:12.908Z,11.83
2018-01-21T08:22:41.172Z,10.20
2018-01-21T08:25:09.425Z,10.03
2018-01-21T08:27:38.460Z,10.50
2018-01-21T08:30:07.497Z,9.83
2018-01-21T08:32:36.545Z,10.40
2018-01-21T08:35:10.457Z,10.50
2018-01-21T08:37:44.445Z,9.27
2018-01-21T08:40:19.099Z,9.13
2018-01-21T08:42:47.368Z,9.23
2018-01-21T08:45:15.697Z,9.27
2018-01-21T08:47:43.936Z,8.27
2018-01-21T08:50:12.177Z,8.90
2018-01-21T08:52:40.449Z,9.37
2018-01-21T08:55:08.719Z,9.03
2018-01-21T08:57:36.961Z,11.40
2018-01-21T09:00:05.228Z,10.63
2018-01-21T09:02:33.501Z,10.57
2018-01-21T09:05:01.790Z,10.30
2018-01-21T09:07:31.696Z,10.03
2018-01-21T09:09:59.965Z,8.47
2018-01-21T09:12:28.202Z,9.10
2018-01-21T09:14:56.458Z,9.07
2018-01-21T09:17:25.532Z,9.20
2018-01-21T09:19:53.726Z,10.47
2018-01-21T09:22:22.015Z,12.50
2018-01-21T09:24:50.373Z,10.00
2018-01-21T09:27:19.358Z,8.40
2018-01-21T09:29:47.617Z,9.40
2018-01-21T09:32:15.912Z,10.20
2018-01-21T09:34:45.046Z,10.80
2018-01-21T09:37:13.317Z,10.70
2018-01-21T09:39:41.549Z,9.43
2018-01-21T09:42:09.831Z,10.40
2018-01-21T09:44:38.110Z,8.67
2018-01-21T09:47:06.432Z,7.93
2018-01-21T09:49:34.677Z,9.17
2018-01-21T09:52:03.107Z,9.67
2018-01-21T09:54:31.343Z,8.50
2018-01-21T09:57:00.360Z,8.20
2018-01-21T09:59:28.611Z,8.57
2018-01-21T10:01:57.040Z,8.73
2018-01-21T10:04:26.002Z,9.20
2018-01-21T10:06:54.234Z,8.07
2018-01-21T10:09:22.493Z,7.93
2018-01-21T10:11:50.726Z,7.30
2018-01-21T10:14:18.977Z,6.33
2018-01-21T10:16:47.990Z,7.37
2018-01-21T10:19:16.443Z,5.67
2018-01-21T10:21:46.205Z,6.47
2018-01-21T10:24:14.475Z,5.70
2018-01-21T10:26:42.884Z,7.70
2018-01-21T10:29:11.180Z,6.37
2018-01-21T10:31:40.182Z,5.80
2018-01-21T10:34:09.196Z,7.23
2018-01-21T10:36:37.447Z,8.93
2018-01-21T10:39:05.680Z,6.37
2018-01-21T10:41:33.945Z,8.33
2018-01-21T10:44:02.179Z,18.37
2018-01-21T10:46:31.347Z,6.67
2018-01-21T10:49:00.371Z,7.70
2018-01-21T10:51:29.412Z,8.63
2018-01-21T10:53:57.668Z,6.70
2018-01-21T10:56:25.901Z,7.07
2018-01-21T10:58:54.146Z,6.90
2018-01-21T11:01:22.395Z,4.77
2018-01-21T11:03:50.734Z,6.30
2018-01-21T11:06:18.947Z,6.90
2018-01-21T11:08:47.225Z,6.60
2018-01-21T11:11:15.453Z,5.67
2018-01-21T11:13:43.721Z,7.27
2018-01-21T11:16:19.386Z,5.73
2018-01-21T11:18:49.192Z,6.23
2018-01-21T11:21:18.446Z,6.07
2018-01-21T11:23:46.980Z,6.53
2018-01-21T11:26:15.678Z,6.13
2018-01-21T11:28:43.905Z,7.03
2018-01-21T11:31:12.173Z,7.00
2018-01-21T11:33:40.408Z,7.30
2018-01-21T11:36:08.884Z,6.50
2018-01-21T11:38:37.319Z,6.37
2018-01-21T11:41:06.660Z,6.97
2018-01-21T11:43:36.727Z,6.40
2018-01-21T11:46:04.943Z,7.40
2018-01-21T11:48:33.213Z,6.70
2018-01-21T11:51:01.437Z,5.87
2018-01-21T11:53:29.681Z,6.30
2018-01-21T11:55:57.943Z,6.63
2018-01-21T11:58:26.205Z,7.80
2018-01-21T12:00:54.451Z,5.70
2018-01-21T12:03:22.696Z,6.90
2018-01-21T12:05:51.711Z,7.73
2018-01-21T12:08:19.962Z,7.00
2018-01-21T12:10:48.278Z,5.97
2018-01-21T12:13:16.513Z,6.10
2018-01-21T12:15:45.607Z,6.17
2018-01-21T12:18:13.874Z,10.50
2018-01-21T12:20:42.318Z,8.50
2018-01-21T12:23:10.568Z,8.93
2018-01-21T12:25:38.857Z,6.80
2018-01-21T12:28:07.114Z,17.90
2018-01-21T12:30:35.463Z,9.77
2018-01-21T12:33:03.668Z,8.80
2018-01-21T12:35:32.090Z,7.70
2018-01-21T12:38:00.360Z,7.90
2018-01-21T12:40:28.727Z,8.53
2018-01-21T12:42:57.181Z,8.30
2018-01-21T12:45:26.169Z,6.70
2018-01-21T12:47:54.417Z,6.73
2018-01-21T12:50:24.288Z,6.70
2018-01-21T12:52:52.522Z,8.40
2018-01-21T12:55:21.524Z,6.93
2018-01-21T12:57:50.189Z,7.03
2018-01-21T13:00:19.281Z,5.67
2018-01-21T13:02:47.476Z,3.57
2018-01-21T13:05:16.520Z,2.80
2018-01-21T13:07:44.784Z,7.80
2018-01-21T13:10:13.075Z,2.80
2018-01-21T13:12:41.293Z,1.70
2018-01-21T13:15:09.560Z,1.30
2018-01-21T13:17:37.890Z,1.77
2018-01-21T13:20:06.133Z,1.43
2018-01-21T13:22:34.409Z,1.00
2018-01-21T13:25:02.673Z,1.70
2018-01-21T13:27:31.718Z,1.20
2018-01-21T13:29:59.918Z,1.40
2018-01-21T13:32:29.526Z,0.90
2018-01-21T13:34:57.749Z,2.90
2018-01-21T13:37:26.010Z,3.33
2018-01-21T13:39:55.152Z,1.67
2018-01-21T13:42:23.665Z,1.47
2018-01-21T13:44:51.861Z,3.87
2018-01-21T13:47:21.029Z,2.20
2018-01-21T13:49:49.287Z,2.43
2018-01-21T13:52:17.582Z,2.33
2018-01-21T13:54:46.449Z,2.97
2018-01-21T13:57:14.702Z,2.60
2018-01-21T13:59:42.949Z,2.50
2018-01-21T14:02:11.977Z,16.73
2018-01-21T14:04:40.230Z,21.20
2018-01-21T14:07:08.585Z,7.87
2018-01-21T14:09:36.861Z,5.10
2018-01-21T14:12:05.102Z,3.70
2018-01-21T14:14:33.363Z,4.00
2018-01-21T14:17:01.597Z,3.50
2018-01-21T14:19:29.820Z,3.57
2018-01-21T14:21:58.901Z,8.03
2018-01-21T14:24:27.161Z,4.73
2018-01-21T14:26:55.682Z,2.40
2018-01-21T14:29:23.922Z,3.17
2018-01-21T14:31:52.214Z,2.40
2018-01-21T14:34:20.540Z,3.00
2018-01-21T14:36:48.975Z,3.90
2018-01-21T14:39:17.205Z,6.27
2018-01-21T14:41:45.733Z,5.43
2018-01-21T14:44:13.981Z,9.67
2018-01-21T14:46:42.217Z,5.10
2018-01-21T14:49:10.574Z,6.30
2018-01-21T14:51:38.856Z,4.30
2018-01-21T14:54:07.113Z,4.70
2018-01-21T14:56:35.373Z,2.53
2018-01-21T14:59:04.257Z,9.40
2018-01-21T15:01:32.499Z,6.87
2018-01-21T15:04:01.502Z,4.93
2018-01-21T15:06:29.775Z,6.07
2018-01-21T15:08:58.005Z,4.50
2018-01-21T15:11:26.267Z,3.80
2018-01-21T15:13:54.500Z,3.17
2018-01-21T15:16:22.733Z,2.60
2018-01-21T15:18:51.004Z,2.63
2018-01-21T15:21:20.285Z,2.40
2018-01-21T15:23:48.523Z,3.00
2018-01-21T15:26:16.837Z,3.23
2018-01-21T15:28:45.122Z,2.50
2018-01-21T15:31:13.360Z,2.33
2018-01-21T15:33:41.614Z,2.67
2018-01-21T15:36:09.854Z,2.07
2018-01-21T15:38:38.110Z,8.47
2018-01-21T15:41:07.104Z,3.03
2018-01-21T15:43:35.369Z,4.30
2018-01-21T15:46:03.625Z,2.80
2018-01-21T15:48:31.908Z,6.77
2018-01-21T15:51:00.919Z,7.70
2018-01-21T15:53:29.938Z,3.47
2018-01-21T15:55:58.176Z,5.03
2018-01-21T16:01:00.875Z,3.53
2018-01-21T16:03:29.145Z,2.77
2018-01-21T16:05:57.401Z,2.83
2018-01-21T16:08:25.661Z,3.20
2018-01-21T16:10:53.881Z,3.37
2018-01-21T16:13:22.911Z,4.17
2018-01-21T16:15:51.152Z,4.17
2018-01-21T16:18:19.516Z,4.30
2018-01-21T16:20:47.885Z,4.80
2018-01-21T16:23:16.168Z,4.37
2018-01-21T16:25:44.399Z,6.90
2018-01-21T16:28:12.670Z,6.00
2018-01-21T16:30:41.148Z,8.10
2018-01-21T16:33:09.389Z,4.80
2018-01-21T16:35:37.652Z,8.90
2018-01-21T16:38:17.728Z,4.33
2018-01-21T16:40:46.232Z,3.73
2018-01-21T16:43:14.465Z,3.97
2018-01-21T16:45:42.741Z,6.47
2018-01-21T16:48:11.897Z,5.33
2018-01-21T16:50:40.163Z,6.50
2018-01-21T16:53:08.407Z,7.30
2018-01-21T16:55:37.524Z,10.20
2018-01-21T16:58:05.821Z,5.47
2018-01-21T17:00:34.061Z,7.60
2018-01-21T17:03:02.329Z,6.73
2018-01-21T17:05:31.327Z,7.25
2018-01-21T17:07:59.736Z,6.23
2018-01-21T17:10:28.168Z,5.83
2018-01-21T17:12:56.449Z,5.30
2018-01-21T17:15:24.696Z,5.70
2018-01-21T17:17:52.944Z,6.70
2018-01-21T17:20:21.178Z,5.83
2018-01-21T17:22:50.246Z,5.93
2018-01-21T17:25:18.464Z,5.50
2018-01-21T17:27:46.759Z,6.03
2018-01-21T17:30:15.148Z,5.83
2018-01-21T17:32:44.324Z,5.17
2018-01-21T17:35:12.545Z,6.10
2018-01-21T17:37:40.797Z,5.70
2018-01-21T17:40:09.073Z,5.30
2018-01-21T17:42:37.518Z,5.60
2018-01-21T17:45:06.523Z,5.37
2018-01-21T17:47:34.765Z,5.93
2018-01-21T17:50:04.027Z,5.67
2018-01-21T17:52:32.344Z,6.00
2018-01-21T17:55:02.130Z,6.43
2018-01-21T17:57:30.393Z,6.60
2018-01-21T17:59:58.642Z,6.73
2018-01-21T18:02:26.893Z,7.43
2018-01-21T18:04:55.535Z,9.00
2018-01-21T18:07:23.773Z,7.43
2018-01-21T18:09:52.005Z,7.73
2018-01-21T18:12:21.216Z,7.60
2018-01-21T18:14:49.407Z,6.20
2018-01-21T18:17:18.456Z,7.53
2018-01-21T18:19:47.683Z,7.83
2018-01-21T18:22:16.155Z,8.30
2018-01-21T18:24:44.385Z,7.70
2018-01-21T18:27:12.677Z,7.83
2018-01-21T18:29:41.199Z,9.07
2018-01-21T18:32:09.432Z,8.63
2018-01-21T18:34:37.738Z,8.77
2018-01-21T18:37:06.335Z,8.20
2018-01-21T18:39:34.583Z,6.30
2018-01-21T18:42:04.973Z,7.10
2018-01-21T18:44:33.252Z,7.17
2018-01-21T18:47:01.497Z,9.20
2018-01-21T18:49:29.736Z,8.10
2018-01-21T18:51:58.023Z,8.10
2018-01-21T18:54:26.280Z,8.97
2018-01-21T18:56:54.516Z,8.30
2018-01-21T18:59:22.761Z,9.90
2018-01-21T19:01:51.897Z,8.63
2018-01-21T19:04:21.454Z,9.83
2018-01-21T19:06:50.134Z,8.43
2018-01-21T19:09:18.422Z,9.10
2018-01-21T19:11:46.837Z,9.33
2018-01-21T19:14:15.130Z,9.80
2018-01-21T19:16:44.713Z,9.70
2018-01-21T19:19:12.990Z,8.87
2018-01-21T19:21:42.014Z,9.70
2018-01-21T19:24:10.828Z,9.03
2018-01-21T19:26:39.105Z,8.40
2018-01-21T19:29:07.391Z,8.13
2018-01-21T19:31:35.628Z,8.10
2018-01-21T19:34:03.900Z,9.00
2018-01-21T19:36:32.175Z,8.80
2018-01-21T19:39:03.032Z,7.80
2018-01-21T19:41:42.144Z,8.70
2018-01-21T19:47:05.966Z,9.10
2018-01-21T19:49:34.261Z,8.07
2018-01-21T19:52:03.083Z,7.70
2018-01-21T19:54:31.344Z,7.50
2018-01-21T19:57:00.364Z,7.23
2018-01-21T19:59:29.389Z,7.30
2018-01-21T20:01:57.634Z,8.37
2018-01-21T20:04:25.881Z,7.30
2018-01-21T20:06:54.898Z,6.90
2018-01-21T20:09:23.893Z,7.03
2018-01-21T20:11:52.145Z,7.50
2018-01-21T20:14:20.444Z,6.53
2018-01-21T20:16:48.709Z,5.97
2018-01-21T20:19:16.971Z,7.33
2018-01-21T20:21:45.961Z,7.00
2018-01-21T20:24:14.238Z,6.57
2018-01-21T20:26:42.507Z,6.30
2018-01-21T20:29:10.893Z,5.93
2018-01-21T20:31:39.133Z,5.70
2018-01-21T20:34:07.407Z,4.90
2018-01-21T20:36:35.939Z,5.47
2018-01-21T20:39:04.144Z,5.53
2018-01-21T20:41:32.451Z,4.50
2018-01-21T20:44:01.113Z,4.70
2018-01-21T20:46:30.106Z,5.03
2018-01-21T20:48:58.364Z,4.73
2018-01-21T20:51:32.497Z,4.77
2018-01-21T20:54:06.321Z,4.23
2018-01-21T20:56:34.650Z,5.20
2018-01-21T20:59:02.879Z,4.10
2018-01-21T21:01:31.194Z,4.60
2018-01-21T21:03:59.426Z,4.10
2018-01-21T21:06:27.661Z,3.70
2018-01-21T21:08:55.931Z,3.70
2018-01-21T21:11:24.934Z,3.70
2018-01-21T21:13:53.165Z,4.20
2018-01-21T21:16:21.467Z,3.67
2018-01-21T21:18:49.737Z,6.00
2018-01-21T21:21:22.178Z,3.83
2018-01-21T21:23:50.413Z,3.83
2018-01-21T21:26:18.676Z,4.73
2018-01-21T21:28:47.709Z,3.70
2018-01-21T21:31:15.997Z,3.60
2018-01-21T21:33:44.225Z,4.00
2018-01-21T21:36:12.477Z,4.53
2018-01-21T21:38:40.772Z,4.10
2018-01-21T21:41:09.022Z,4.03
2018-01-21T21:43:38.082Z,3.67
2018-01-21T21:46:06.333Z,4.20
2018-01-21T21:48:34.593Z,3.60
2018-01-21T21:51:03.008Z,3.60
2018-01-21T21:53:32.840Z,3.67
2018-01-21T21:56:01.060Z,4.47
2018-01-21T21:58:29.305Z,4.20
2018-01-21T22:00:57.541Z,4.13
2018-01-21T22:03:25.785Z,4.00
2018-01-21T22:05:54.830Z,3.70
2018-01-21T22:08:23.119Z,3.40
2018-01-21T22:10:51.316Z,3.53
2018-01-21T22:13:19.588Z,4.17
2018-01-21T22:15:47.833Z,3.53
2018-01-21T22:18:16.093Z,3.83
2018-01-21T22:20:44.324Z,4.43
2018-01-21T22:23:12.586Z,2.83
2018-01-21T22:25:40.808Z,3.87
2018-01-21T22:28:09.064Z,4.53
2018-01-21T22:30:37.308Z,3.87
2018-01-21T22:33:05.560Z,3.73
2018-01-21T22:35:33.840Z,4.27
2018-01-21T22:38:02.358Z,4.70
2018-01-21T22:40:30.565Z,3.40
2018-01-21T22:42:59.572Z,3.90
2018-01-21T22:45:27.804Z,4.20
2018-01-21T22:47:57.632Z,4.40
2018-01-21T22:50:26.679Z,3.70
2018-01-21T22:52:55.678Z,4.20
2018-01-21T22:55:23.918Z,3.93
2018-01-21T22:57:52.383Z,4.10
2018-01-21T23:00:20.599Z,4.00
2018-01-21T23:02:48.847Z,4.00
2018-01-21T23:05:17.100Z,4.00
2018-01-21T23:07:46.281Z,4.43
2018-01-21T23:10:14.474Z,4.30
2018-01-21T23:12:43.502Z,4.77
2018-01-21T23:15:11.827Z,4.60
2018-01-21T23:17:41.230Z,4.50
2018-01-21T23:20:09.466Z,4.50
2018-01-21T23:22:37.783Z,4.23
2018-01-21T23:25:06.024Z,4.70
2018-01-21T23:27:34.279Z,4.27
2018-01-21T23:30:02.572Z,3.90
2018-01-21T23:32:30.854Z,3.93
2018-01-21T23:34:59.449Z,4.27
2018-01-21T23:37:27.792Z,4.40
2018-01-21T23:39:56.229Z,3.80
2018-01-21T23:42:25.295Z,4.40
2018-01-21T23:44:53.757Z,4.00
2018-01-21T23:47:22.182Z,3.53
2018-01-21T23:49:51.141Z,3.60
2018-01-21T23:52:20.358Z,3.57
2018-01-21T23:54:48.611Z,4.33
2018-01-21T23:57:16.850Z,4.23
2018-01-21T23:59:45.254Z,4.43
